Terminal Aerodrome Forecast
Issued by NWS Austin/San Antonio, TX

Home | Current Version | Previous Version | Text Only | Print | Product List | Glossary On
Versions: 1 2 3 4 5 6 7 8 9 10 11 12 13 14 15 16 17 18 19 20 21 22 23 24 25 26 27 28
673
FTUS44 KEWX 271358 AAA
TAFSAT
TAF AMD
KSAT 271358Z 2714/2818 13007KT 6SM BR OVC014
     FM271800 17010KT P6SM SCT020 BKN050
     FM280600 16005KT P6SM OVC015
     FM280900 16005KT 1/2SM FG OVC004=

USA.gov is the U.S. government's official web portal to all federal, state and local government web resources and services.